createdAt,value
2019-03-18T00:00:30.733Z,2.40
2019-03-18T00:02:59.046Z,2.83
2019-03-18T00:05:27.724Z,2.70
2019-03-18T00:07:56.066Z,2.80
2019-03-18T00:10:24.656Z,2.67
2019-03-18T00:12:53.324Z,2.55
2019-03-18T00:15:21.605Z,2.25
2019-03-18T00:17:49.892Z,1.90
2019-03-18T00:20:18.123Z,2.15
2019-03-18T00:22:46.301Z,2.62
2019-03-18T00:25:14.725Z,2.30
2019-03-18T00:27:42.975Z,2.90
2019-03-18T00:30:13.148Z,2.67
2019-03-18T00:32:41.412Z,1.27
2019-03-18T00:35:10.047Z,2.62
2019-03-18T00:37:38.193Z,2.02
2019-03-18T00:40:07.230Z,3.25
2019-03-18T00:42:35.402Z,3.30
2019-03-18T00:45:14.169Z,2.30
2019-03-18T00:47:34.001Z,2.75
2019-03-18T00:50:02.410Z,1.77
2019-03-18T00:52:30.611Z,2.55
2019-03-18T00:54:58.994Z,1.90
2019-03-18T00:57:27.186Z,1.95
2019-03-18T00:59:55.807Z,2.27
2019-03-18T01:02:24.391Z,2.33
2019-03-18T01:04:52.554Z,2.65
2019-03-18T01:07:20.841Z,3.87
2019-03-18T01:09:49.326Z,2.15
2019-03-18T01:12:17.536Z,3.17
2019-03-18T01:14:46.108Z,3.27
2019-03-18T01:17:14.256Z,2.90
2019-03-18T01:19:42.527Z,2.12
2019-03-18T01:22:10.765Z,2.92
2019-03-18T01:24:39.139Z,1.50
2019-03-18T01:27:07.342Z,3.80
2019-03-18T01:29:35.486Z,2.40
2019-03-18T01:32:03.594Z,2.30
2019-03-18T01:34:31.782Z,3.17
2019-03-18T01:37:00.041Z,2.25
2019-03-18T01:39:28.306Z,1.50
2019-03-18T01:41:56.494Z,2.35
2019-03-18T01:44:24.618Z,2.60
2019-03-18T01:46:52.855Z,2.30
2019-03-18T01:49:21.225Z,2.00
2019-03-18T01:51:49.357Z,1.60
2019-03-18T01:54:17.488Z,1.95
2019-03-18T01:56:45.759Z,2.15
2019-03-18T01:59:13.909Z,2.22
2019-03-18T02:01:42.245Z,1.72
2019-03-18T02:04:10.415Z,2.58
2019-03-18T02:06:38.541Z,1.70
2019-03-18T02:09:07.482Z,2.60
2019-03-18T02:11:35.636Z,2.55
2019-03-18T02:14:03.770Z,1.12
2019-03-18T02:16:31.974Z,2.75
2019-03-18T02:19:00.414Z,2.30
2019-03-18T02:21:28.624Z,2.00
2019-03-18T02:23:57.010Z,2.42
2019-03-18T02:26:25.327Z,2.02
2019-03-18T02:28:53.589Z,1.85
2019-03-18T02:31:21.817Z,2.15
2019-03-18T02:33:50.653Z,3.10
2019-03-18T02:36:19.131Z,2.67
2019-03-18T02:38:47.245Z,2.47
2019-03-18T02:41:15.813Z,2.60
2019-03-18T02:43:44.131Z,2.45
2019-03-18T02:46:12.334Z,2.67
2019-03-18T02:48:40.507Z,2.80
2019-03-18T02:51:08.677Z,2.30
2019-03-18T02:53:36.814Z,1.92
2019-03-18T02:56:05.011Z,2.70
2019-03-18T02:58:33.205Z,2.27
2019-03-18T03:01:01.575Z,2.33
2019-03-18T03:03:29.803Z,1.40
2019-03-18T03:05:57.957Z,2.70
2019-03-18T03:08:26.224Z,2.00
2019-03-18T03:10:54.381Z,2.17
2019-03-18T03:13:22.650Z,2.40
2019-03-18T03:15:50.980Z,2.75
2019-03-18T03:18:19.157Z,3.05
2019-03-18T03:20:47.605Z,2.83
2019-03-18T03:23:15.853Z,2.27
2019-03-18T03:25:44.143Z,2.72
2019-03-18T03:28:12.250Z,2.35
2019-03-18T03:30:40.438Z,2.77
2019-03-18T03:33:08.805Z,2.50
2019-03-18T03:35:37.243Z,3.17
2019-03-18T03:38:05.622Z,3.22
2019-03-18T03:40:33.957Z,3.33
2019-03-18T03:43:02.051Z,2.90
2019-03-18T03:45:30.336Z,2.92
2019-03-18T03:47:58.492Z,3.17
2019-03-18T03:50:26.738Z,2.77
2019-03-18T03:52:54.905Z,3.55
2019-03-18T03:55:23.140Z,2.62
2019-03-18T03:57:51.411Z,1.70
2019-03-18T04:00:19.575Z,2.20
2019-03-18T04:02:47.742Z,3.00
2019-03-18T04:05:16.030Z,2.80
2019-03-18T04:07:44.501Z,3.40
2019-03-18T04:10:12.785Z,4.00
2019-03-18T04:12:41.002Z,2.95
2019-03-18T04:15:09.266Z,4.17
2019-03-18T04:17:37.594Z,4.55
2019-03-18T04:20:06.535Z,3.35
2019-03-18T04:22:34.773Z,4.03
2019-03-18T04:25:03.212Z,2.42
2019-03-18T04:27:31.511Z,2.87
2019-03-18T04:29:59.751Z,4.37
2019-03-18T04:32:27.963Z,2.87
2019-03-18T04:34:56.258Z,3.58
2019-03-18T04:37:24.577Z,4.37
2019-03-18T04:39:52.727Z,4.17
2019-03-18T04:42:21.004Z,2.52
2019-03-18T04:44:49.411Z,4.47
2019-03-18T04:47:17.526Z,5.03
2019-03-18T04:49:45.716Z,5.17
2019-03-18T04:52:13.914Z,1.55
2019-03-18T04:54:42.280Z,4.78
2019-03-18T04:57:10.554Z,3.62
2019-03-18T04:59:38.988Z,5.58
2019-03-18T05:02:07.234Z,3.62
2019-03-18T05:04:35.624Z,4.15
2019-03-18T05:07:03.829Z,4.22
2019-03-18T05:09:31.985Z,6.20
2019-03-18T05:12:00.302Z,5.70
2019-03-18T05:14:28.452Z,4.67
2019-03-18T05:16:56.610Z,5.65
2019-03-18T05:19:24.879Z,5.20
2019-03-18T05:21:53.123Z,5.80
2019-03-18T05:24:21.363Z,4.53
2019-03-18T05:26:49.665Z,6.17
2019-03-18T05:29:17.826Z,4.30
2019-03-18T05:31:46.219Z,6.62
2019-03-18T05:34:14.443Z,5.62
2019-03-18T05:36:42.625Z,6.25
2019-03-18T05:39:10.799Z,5.42
2019-03-18T05:41:38.948Z,6.12
2019-03-18T05:44:08.176Z,6.55
2019-03-18T05:46:36.407Z,4.10
2019-03-18T05:49:04.737Z,7.55
2019-03-18T05:51:35.995Z,3.80
2019-03-18T05:54:04.655Z,6.25
2019-03-18T05:56:33.121Z,7.85
2019-03-18T05:59:12.692Z,6.65
2019-03-18T06:01:43.372Z,5.65
2019-03-18T06:04:14.287Z,8.90
2019-03-18T06:06:42.509Z,6.67
2019-03-18T06:09:10.746Z,7.17
2019-03-18T06:11:38.980Z,6.92
2019-03-18T06:14:07.244Z,7.28
2019-03-18T06:16:35.426Z,4.80
2019-03-18T06:19:03.758Z,3.10
2019-03-18T06:21:32.286Z,6.92
2019-03-18T06:24:00.675Z,4.95
2019-03-18T06:26:28.923Z,6.78
2019-03-18T06:28:57.048Z,7.55
2019-03-18T06:31:25.399Z,5.17
2019-03-18T06:33:53.557Z,6.75
2019-03-18T06:36:21.767Z,5.72
2019-03-18T06:38:49.947Z,5.53
2019-03-18T06:41:18.061Z,4.97
2019-03-18T06:43:46.287Z,5.65
2019-03-18T06:46:14.509Z,6.30
2019-03-18T06:48:42.798Z,5.75
2019-03-18T06:51:10.921Z,5.55
2019-03-18T06:53:40.277Z,5.67
2019-03-18T06:56:08.567Z,6.45
2019-03-18T06:58:36.907Z,5.83
2019-03-18T07:01:05.069Z,5.12
2019-03-18T07:03:33.207Z,5.92
2019-03-18T07:06:01.501Z,6.33
2019-03-18T07:08:29.704Z,5.47
2019-03-18T07:10:57.890Z,5.10
2019-03-18T07:13:26.038Z,5.03
2019-03-18T07:15:54.172Z,4.00
2019-03-18T07:18:22.457Z,6.28
2019-03-18T07:20:50.588Z,2.10
2019-03-18T07:23:18.760Z,4.75
2019-03-18T07:25:47.025Z,5.87
2019-03-18T07:28:18.001Z,5.42
2019-03-18T07:30:45.240Z,6.28
2019-03-18T07:33:13.664Z,6.90
2019-03-18T07:35:41.807Z,6.58
2019-03-18T07:38:10.101Z,6.95
2019-03-18T07:40:38.469Z,8.03
2019-03-18T07:43:06.664Z,5.72
2019-03-18T07:45:35.171Z,7.35
2019-03-18T07:48:03.370Z,5.95
2019-03-18T07:50:31.675Z,6.62
2019-03-18T07:52:59.928Z,5.45
2019-03-18T07:55:28.167Z,5.95
2019-03-18T07:57:56.407Z,4.47
2019-03-18T08:00:24.659Z,6.03
2019-03-18T08:02:52.881Z,4.62
2019-03-18T08:05:21.129Z,3.67
2019-03-18T08:07:49.416Z,5.60
2019-03-18T08:10:17.652Z,6.50
2019-03-18T08:12:46.003Z,5.33
2019-03-18T08:15:14.454Z,3.50
2019-03-18T08:17:42.719Z,7.42
2019-03-18T08:20:11.221Z,6.40
2019-03-18T08:22:39.441Z,5.53
2019-03-18T08:25:07.878Z,5.60
2019-03-18T08:27:36.123Z,6.28
2019-03-18T08:30:04.697Z,5.53
2019-03-18T08:32:32.916Z,6.30
2019-03-18T08:35:01.086Z,5.42
2019-03-18T08:37:29.275Z,5.42
2019-03-18T08:39:57.506Z,4.83
2019-03-18T08:42:25.792Z,5.12
2019-03-18T08:44:53.916Z,5.15
2019-03-18T08:47:22.214Z,5.60
2019-03-18T08:49:50.426Z,4.35
2019-03-18T08:52:18.662Z,4.28
2019-03-18T08:54:46.839Z,3.90
2019-03-18T08:57:15.058Z,4.22
2019-03-18T08:59:43.268Z,4.12
2019-03-18T09:02:11.417Z,3.20
2019-03-18T09:04:39.851Z,3.90
2019-03-18T09:07:08.013Z,2.35
2019-03-18T09:09:36.333Z,3.70
2019-03-18T09:12:04.770Z,2.75
2019-03-18T09:14:32.992Z,2.75
2019-03-18T09:17:01.146Z,2.50
2019-03-18T09:19:29.272Z,2.22
2019-03-18T09:21:57.601Z,3.00
2019-03-18T09:24:25.971Z,2.95
2019-03-18T09:27:02.243Z,2.95
2019-03-18T09:29:24.018Z,3.62
2019-03-18T09:31:52.590Z,1.87
2019-03-18T09:34:20.926Z,1.98
2019-03-18T09:36:49.285Z,2.67
2019-03-18T09:39:17.665Z,2.27
2019-03-18T09:41:45.829Z,2.50
2019-03-18T09:44:14.010Z,2.15
2019-03-18T09:46:42.266Z,2.10
2019-03-18T09:49:20.900Z,2.00
2019-03-18T09:51:40.548Z,1.67
2019-03-18T09:54:08.830Z,1.90
2019-03-18T09:56:37.076Z,2.47
2019-03-18T09:59:05.202Z,2.15
2019-03-18T10:01:33.394Z,3.42
2019-03-18T10:04:01.682Z,1.72
2019-03-18T10:06:29.859Z,2.58
2019-03-18T10:08:58.250Z,3.02
2019-03-18T10:11:26.411Z,2.75
2019-03-18T10:13:54.610Z,2.15
2019-03-18T10:16:22.943Z,3.17
2019-03-18T10:18:51.211Z,1.95
2019-03-18T10:21:19.337Z,1.52
2019-03-18T10:23:47.664Z,2.15
2019-03-18T10:26:15.941Z,1.57
2019-03-18T10:28:44.038Z,1.77
2019-03-18T10:31:12.292Z,1.07
2019-03-18T10:33:40.421Z,1.85
2019-03-18T10:36:08.719Z,1.20
2019-03-18T10:38:36.847Z,2.10
2019-03-18T10:41:05.217Z,1.37
2019-03-18T10:43:33.443Z,1.52
2019-03-18T10:46:01.609Z,1.20
2019-03-18T10:48:29.759Z,2.33
2019-03-18T10:50:57.905Z,1.82
2019-03-18T10:53:26.121Z,1.10
2019-03-18T10:55:54.324Z,1.92
2019-03-18T10:58:22.547Z,1.72
2019-03-18T11:00:50.685Z,1.72
2019-03-18T11:03:18.918Z,1.50
2019-03-18T11:05:47.168Z,0.98
2019-03-18T11:08:15.403Z,1.40
2019-03-18T11:10:43.544Z,2.05
2019-03-18T11:13:11.800Z,1.45
2019-03-18T11:15:39.971Z,1.87
2019-03-18T11:18:08.202Z,1.00
2019-03-18T11:20:36.683Z,1.50
2019-03-18T11:23:04.922Z,1.35
2019-03-18T11:25:33.210Z,0.98
2019-03-18T11:28:01.660Z,1.55
2019-03-18T11:30:29.966Z,1.10
2019-03-18T11:32:58.378Z,1.47
2019-03-18T11:35:26.596Z,0.70
2019-03-18T11:37:54.864Z,1.00
2019-03-18T11:40:25.157Z,2.37
2019-03-18T11:42:53.355Z,1.00
2019-03-18T11:45:21.495Z,1.17
2019-03-18T11:47:49.866Z,1.40
2019-03-18T11:50:18.063Z,1.37
2019-03-18T11:52:46.457Z,1.80
2019-03-18T11:55:15.179Z,1.35
2019-03-18T11:57:43.391Z,1.47
2019-03-18T12:00:13.362Z,1.70
2019-03-18T12:02:41.595Z,1.25
2019-03-18T12:05:12.197Z,1.10
2019-03-18T12:10:09.614Z,1.17
2019-03-18T12:12:37.962Z,1.45
2019-03-18T12:15:07.044Z,1.07
2019-03-18T12:17:35.418Z,1.45
2019-03-18T12:20:03.614Z,1.72
2019-03-18T12:22:31.796Z,1.40
2019-03-18T12:25:00.065Z,1.57
2019-03-18T12:27:28.400Z,0.93
2019-03-18T12:29:56.826Z,0.95
2019-03-18T12:32:25.144Z,0.93
2019-03-18T12:34:53.346Z,0.68
2019-03-18T12:37:21.630Z,0.85
2019-03-18T12:39:49.834Z,0.37
2019-03-18T12:42:17.993Z,0.90
2019-03-18T12:44:46.292Z,0.40
2019-03-18T12:47:14.457Z,0.50
2019-03-18T12:49:42.944Z,0.78
2019-03-18T12:52:11.247Z,0.75
2019-03-18T12:54:39.495Z,1.25
2019-03-18T12:57:07.981Z,1.02
2019-03-18T12:59:36.357Z,0.98
2019-03-18T13:02:04.628Z,0.82
2019-03-18T13:04:34.144Z,0.78
2019-03-18T13:07:02.602Z,0.77
2019-03-18T13:09:30.955Z,1.07
2019-03-18T13:11:59.269Z,0.62
2019-03-18T13:14:27.734Z,1.10
2019-03-18T13:16:56.049Z,1.07
2019-03-18T13:19:24.266Z,1.05
2019-03-18T13:21:52.539Z,0.80
2019-03-18T13:24:20.919Z,1.10
2019-03-18T13:26:49.194Z,1.07
2019-03-18T13:29:17.899Z,1.67
2019-03-18T13:31:46.233Z,1.07
2019-03-18T13:34:14.437Z,1.20
2019-03-18T13:36:42.593Z,2.02
2019-03-18T13:39:10.867Z,1.65
2019-03-18T13:41:39.122Z,1.32
2019-03-18T13:44:07.467Z,1.37
2019-03-18T13:46:35.711Z,1.00
2019-03-18T13:49:03.913Z,1.30
2019-03-18T13:51:32.190Z,1.17
2019-03-18T13:54:00.356Z,0.82
2019-03-18T13:56:28.610Z,1.45
2019-03-18T13:58:56.957Z,1.17
2019-03-18T14:01:25.304Z,1.02
2019-03-18T14:03:53.624Z,1.00
2019-03-18T14:06:21.818Z,0.85
2019-03-18T14:08:50.103Z,0.75
2019-03-18T14:11:18.492Z,1.30
2019-03-18T14:13:46.655Z,1.05
2019-03-18T14:16:14.928Z,0.70
2019-03-18T14:18:45.999Z,0.88
2019-03-18T14:21:14.180Z,1.12
2019-03-18T14:23:42.799Z,0.30
2019-03-18T14:26:11.126Z,0.70
2019-03-18T14:28:39.446Z,0.75
2019-03-18T14:31:07.795Z,0.60
2019-03-18T14:33:36.046Z,0.93
2019-03-18T14:36:04.385Z,1.10
2019-03-18T14:38:32.710Z,0.53
2019-03-18T14:41:00.971Z,0.85
2019-03-18T14:43:30.765Z,0.78
2019-03-18T14:45:59.170Z,0.85
2019-03-18T14:48:27.423Z,0.53
2019-03-18T14:50:55.701Z,0.60
2019-03-18T14:53:24.059Z,0.75
2019-03-18T14:55:52.441Z,1.10
2019-03-18T14:58:20.632Z,0.90
2019-03-18T15:00:48.921Z,1.12
2019-03-18T15:03:17.174Z,1.10
2019-03-18T15:05:45.479Z,1.32
2019-03-18T15:08:13.906Z,1.07
2019-03-18T15:10:42.614Z,0.75
2019-03-18T15:13:10.906Z,1.05
2019-03-18T15:15:39.752Z,0.50
2019-03-18T15:18:08.025Z,0.62
2019-03-18T15:20:36.988Z,0.80
2019-03-18T15:23:05.243Z,1.22
2019-03-18T15:25:33.515Z,0.95
2019-03-18T15:28:02.235Z,1.00
2019-03-18T15:30:30.829Z,0.78
2019-03-18T15:32:59.679Z,1.10
2019-03-18T15:35:27.922Z,1.12
2019-03-18T15:37:56.336Z,0.62
2019-03-18T15:40:24.515Z,1.32
2019-03-18T15:42:52.785Z,1.20
2019-03-18T15:45:21.111Z,1.30
2019-03-18T15:47:49.395Z,1.10
2019-03-18T15:50:17.974Z,1.37
2019-03-18T15:52:46.260Z,1.65
2019-03-18T15:55:14.581Z,1.42
2019-03-18T15:57:43.274Z,1.75
2019-03-18T16:00:13.512Z,0.65
2019-03-18T16:02:41.949Z,0.88
2019-03-18T16:05:10.661Z,1.20
2019-03-18T16:07:39.069Z,0.90
2019-03-18T16:10:07.909Z,1.50
2019-03-18T16:12:36.087Z,1.55
2019-03-18T16:15:04.405Z,0.95
2019-03-18T16:17:32.639Z,0.90
2019-03-18T16:20:00.936Z,0.70
2019-03-18T16:22:29.226Z,0.65
2019-03-18T16:24:57.577Z,1.00
2019-03-18T16:27:25.955Z,0.70
2019-03-18T16:29:54.308Z,1.40
2019-03-18T16:32:22.513Z,0.82
2019-03-18T16:34:50.925Z,1.35
2019-03-18T16:37:19.566Z,0.85
2019-03-18T16:39:48.225Z,1.50
2019-03-18T16:42:17.504Z,1.50
2019-03-18T16:44:45.824Z,1.10
2019-03-18T16:47:14.185Z,1.10
2019-03-18T16:49:42.667Z,1.45
2019-03-18T16:52:11.065Z,0.60
2019-03-18T16:54:39.273Z,2.05
2019-03-18T16:57:07.473Z,2.87
2019-03-18T16:59:35.698Z,1.70
2019-03-18T17:02:03.895Z,2.05
2019-03-18T17:04:32.239Z,1.52
2019-03-18T17:07:00.642Z,1.02
2019-03-18T17:09:29.096Z,1.00
2019-03-18T17:11:57.321Z,1.10
2019-03-18T17:14:25.697Z,0.95
2019-03-18T17:16:54.085Z,1.40
2019-03-18T17:19:22.529Z,0.90
2019-03-18T17:21:50.965Z,1.50
2019-03-18T17:24:19.258Z,1.25
2019-03-18T17:26:47.457Z,1.70
2019-03-18T17:29:16.092Z,1.35
2019-03-18T17:31:44.742Z,1.27
2019-03-18T17:34:13.122Z,1.45
2019-03-18T17:36:41.512Z,1.80
2019-03-18T17:39:10.124Z,1.00
2019-03-18T17:41:38.362Z,2.12
2019-03-18T17:44:06.604Z,4.10
2019-03-18T17:46:35.304Z,5.12
2019-03-18T17:49:03.832Z,3.92
2019-03-18T17:51:33.403Z,2.17
2019-03-18T17:54:01.778Z,1.90
2019-03-18T17:56:30.848Z,2.33
2019-03-18T17:58:59.359Z,2.12
2019-03-18T18:01:27.621Z,2.40
2019-03-18T18:03:56.200Z,2.50
2019-03-18T18:06:24.490Z,2.27
2019-03-18T18:08:53.155Z,2.58
2019-03-18T18:11:21.612Z,2.00
2019-03-18T18:13:49.902Z,3.62
2019-03-18T18:16:18.143Z,3.02
2019-03-18T18:18:46.751Z,2.00
2019-03-18T18:21:15.704Z,3.12
2019-03-18T18:23:44.121Z,3.05
2019-03-18T18:26:12.290Z,4.22
2019-03-18T18:28:40.751Z,3.87
2019-03-18T18:31:09.290Z,3.22
2019-03-18T18:33:37.535Z,4.62
2019-03-18T18:36:05.759Z,4.47
2019-03-18T18:38:34.081Z,5.10
2019-03-18T18:41:02.518Z,3.77
2019-03-18T18:43:30.890Z,3.58
2019-03-18T18:45:59.449Z,3.25
2019-03-18T18:48:27.915Z,3.80
2019-03-18T18:50:56.409Z,2.67
2019-03-18T18:53:26.559Z,2.83
2019-03-18T18:55:55.040Z,2.52
2019-03-18T18:58:23.931Z,2.50
2019-03-18T19:00:52.298Z,2.22
2019-03-18T19:03:20.760Z,1.67
2019-03-18T19:05:49.222Z,2.40
2019-03-18T19:08:17.659Z,3.65
2019-03-18T19:10:46.118Z,2.40
2019-03-18T19:13:14.588Z,1.32
2019-03-18T19:15:43.229Z,2.08
2019-03-18T19:18:11.373Z,3.12
2019-03-18T19:20:40.777Z,4.10
2019-03-18T19:23:09.591Z,2.42
2019-03-18T19:25:37.881Z,2.08
2019-03-18T19:28:07.214Z,2.08
2019-03-18T19:30:36.219Z,2.67
2019-03-18T19:33:06.091Z,1.95
2019-03-18T19:35:34.706Z,2.27
2019-03-18T19:38:03.725Z,1.85
2019-03-18T19:40:32.927Z,2.12
2019-03-18T19:43:01.630Z,1.50
2019-03-18T19:45:30.446Z,1.25
2019-03-18T19:47:59.658Z,2.45
2019-03-18T19:50:28.852Z,3.47
2019-03-18T19:52:57.818Z,3.62
2019-03-18T19:55:27.375Z,2.42
2019-03-18T19:57:56.569Z,1.35
2019-03-18T20:00:25.590Z,0.65
2019-03-18T20:02:55.062Z,1.10
2019-03-18T20:05:23.859Z,2.92
2019-03-18T20:07:53.656Z,2.30
2019-03-18T20:10:22.928Z,1.77
2019-03-18T20:12:51.902Z,2.10
2019-03-18T20:15:20.872Z,1.80
2019-03-18T20:17:49.650Z,2.10
2019-03-18T20:20:18.203Z,2.62
2019-03-18T20:22:47.528Z,1.50
2019-03-18T20:25:16.475Z,1.50
2019-03-18T20:27:44.980Z,1.55
2019-03-18T20:30:14.820Z,2.30
2019-03-18T20:32:43.613Z,1.32
2019-03-18T20:35:12.989Z,1.90
2019-03-18T20:37:41.689Z,1.92
2019-03-18T20:40:11.456Z,1.42
2019-03-18T20:42:39.742Z,1.00
2019-03-18T20:45:10.278Z,1.50
2019-03-18T20:47:39.337Z,1.67
2019-03-18T20:50:09.423Z,1.35
2019-03-18T20:52:38.533Z,1.52
2019-03-18T20:55:07.018Z,1.80
2019-03-18T20:57:35.753Z,1.22
2019-03-18T21:00:05.691Z,1.40
2019-03-18T21:02:33.883Z,1.00
2019-03-18T21:05:02.266Z,1.30
2019-03-18T21:07:30.731Z,1.20
2019-03-18T21:09:59.024Z,1.02
2019-03-18T21:12:27.451Z,1.12
2019-03-18T21:14:56.043Z,1.25
2019-03-18T21:17:24.474Z,1.20
2019-03-18T21:19:53.246Z,1.00
2019-03-18T21:22:21.968Z,0.93
2019-03-18T21:24:50.332Z,1.47
2019-03-18T21:27:18.886Z,1.15
2019-03-18T21:29:47.199Z,1.12
2019-03-18T21:32:15.657Z,0.93
2019-03-18T21:34:43.886Z,1.17
2019-03-18T21:37:12.336Z,1.27
2019-03-18T21:39:40.894Z,3.65
2019-03-18T21:42:09.249Z,4.72
2019-03-18T21:44:37.594Z,1.45
2019-03-18T21:47:05.997Z,1.30
2019-03-18T21:49:34.352Z,1.72
2019-03-18T21:52:03.028Z,1.47
2019-03-18T21:54:34.424Z,1.07
2019-03-18T21:57:01.494Z,1.80
2019-03-18T21:59:29.760Z,1.92
2019-03-18T22:01:57.904Z,1.42
2019-03-18T22:04:26.105Z,1.65
2019-03-18T22:06:54.335Z,1.57
2019-03-18T22:09:22.637Z,0.93
2019-03-18T22:11:51.110Z,1.15
2019-03-18T22:14:19.434Z,1.40
2019-03-18T22:16:47.645Z,2.10
2019-03-18T22:19:15.936Z,1.65
2019-03-18T22:21:44.234Z,1.32
2019-03-18T22:24:12.505Z,1.12
2019-03-18T22:26:40.736Z,1.52
2019-03-18T22:29:08.885Z,1.57
2019-03-18T22:31:37.118Z,1.50
2019-03-18T22:34:05.320Z,1.92
2019-03-18T22:36:33.566Z,1.72
2019-03-18T22:39:01.948Z,1.80
2019-03-18T22:41:30.334Z,1.77
2019-03-18T22:43:58.598Z,1.40
2019-03-18T22:46:26.836Z,1.00
2019-03-18T22:48:54.982Z,1.37
2019-03-18T22:51:23.342Z,1.42
2019-03-18T22:53:51.492Z,1.22
2019-03-18T22:56:19.665Z,1.45
2019-03-18T22:58:47.927Z,1.57
2019-03-18T23:01:18.947Z,0.90
2019-03-18T23:03:47.175Z,0.98
2019-03-18T23:06:15.505Z,1.17
2019-03-18T23:09:04.046Z,1.92
2019-03-18T23:11:32.491Z,1.00
2019-03-18T23:14:00.991Z,1.42
2019-03-18T23:16:29.155Z,1.22
2019-03-18T23:18:57.485Z,1.65
2019-03-18T23:21:25.719Z,1.92
2019-03-18T23:23:53.955Z,1.80
2019-03-18T23:26:22.392Z,1.40
2019-03-18T23:28:50.546Z,1.75
2019-03-18T23:31:18.693Z,1.92
2019-03-18T23:33:46.877Z,1.60
2019-03-18T23:36:15.146Z,1.27
2019-03-18T23:38:43.309Z,1.77
2019-03-18T23:41:11.434Z,1.85
2019-03-18T23:43:39.637Z,1.62
2019-03-18T23:46:07.834Z,2.12
2019-03-18T23:48:36.064Z,1.47
2019-03-18T23:51:04.253Z,1.95
2019-03-18T23:53:32.468Z,2.45
2019-03-18T23:56:00.642Z,1.80
2019-03-18T23:58:28.798Z,1.22
